Portada
METAR-TAF:

METAR-TAF

Aeroports :

Guernsey,

latitud: 49-26N, longitud: 002-36W, altitud: 102 m

Observació

L'informe es va fer fa 1 hora i 11 minuts, a les 01:50 UTC
Vent 15 kt del Sud/Sud-Oest
Temperatura 13°C
Humitat 88%
Pressió 1010 hPa
Visibilitat 10 km o més
Escasses núvols a una alçada de 1000 ft
Núvols disperses a una alçada de 1500 ft

METAR: EGJB 240150Z 21015KT 9999 FEW010 SCT015 13/11 Q1010

Hora: 04:01 (03:01 UTC)

Pronòstic

L'informe es va fer fa 1 hora i 5 minuts, a les 01:56 UTC
Pronòstic vàlid del 24 a les 03 UTC al 24 a les 12 UTC
Vent 18 kt del Sud/Sud-Oest
Visibilitat 10 km o més
Escasses núvols a una alçada de 1500 ft
Núvols disperses a una alçada de 2000 ft
Temporalment
l' 24 a les 03 UTC al 24 a les 12 UTC
Cel ennuvolat a una alçada de 1400 ft
Evolucionant progressivament
l' 24 a les 09 UTC al 24 a les 11 UTC
Vent 28 kt del Sud/Sud-Oest amb ràfegues de 38 kt

TAF: EGJB 240156Z 2403/2412 21018KT 9999 FEW015 SCT020 TEMPO 2403/2412 BKN014 BECMG 2409/2411 20028G38KT

Observacions i pronòstics meteorològics de més de 4000 aeroports (METAR i TAF).

Les estacions disponibles són els punts grocs i vermells al mapa.

Posi el ratolí al punt desitjat per veure el nom de l'estació.

Feu clic per veure les observacions i els pronòstics meteorològics.

Per canviar el mapa: feu clic els botons verds amb una creu de color negre per apropar; al botó verd amb un guió per allunyar la imatge; o en les fletxes verdes per a mapes adjacents.


METAR-TAF: